Dades meteomassalio
Diari Summary for Diciembre 13, 2017 Units:  English    Metric   Both
« Previous Day
Next Day »
Diari Semanal Mensual Anual Personalitzat
  Maxima: Minima: Mijana:
Temperatura: TemperatureC °F -4.4 °F 2.4 °F
Rosada: DewpointC °F -7.8 °F -3 °F
Humitat: Humidity % 46 % 69 %
Velocitat del vent: WindSpeedKMH mph 0.0 mph 3.4 mph
Racha vent: WindSpeedGustKMH mph - -
Vent:- - West
Pressio: PressurehPa in 1024.9 in -
Pluja: 0.0 in    
Historical Graphs
 
 
Tabular Data for Diciembre 13, 2017
Time Temperature Dew Point Pressure Wind Wind Speed Wind Gust Humidity Rainfall Rate (Hourly) solar Conditions
TemperatureC °F DewpointC °F PressurehPa in Calm     Humidity % HourlyPrecipMM in SolarRadiationWatts/m^2 W/m2 Conditions
00:07 -1.7 °F -7.2 °F 1026.6 in West 20.9 mph 20.9 mph 66 % 0.0 in 0.0 W/m2 CLR
00:17 -1.7 °F -7.2 °F 1027.0 in NW 20.4 mph 20.4 mph 66 % 0.0 in 0.0 W/m2 CLR
00:22 -2.2 °F -7.7 °F 1027.0 in NW 22.2 mph 22.2 mph 66 % 0.0 in 0.0 W/m2 CLR
00:32 -2.2 °F -7.7 °F 1027.0 in WNW 18.5 mph 18.5 mph 66 % 0.0 in 0.0 W/m2 CLR
00:37 -2.2 °F -7.7 °F 1027.0 in WNW 9.7 mph 9.7 mph 66 % 0.0 in 0.0 W/m2 CLR
00:42 -2.2 °F -7.7 °F 1027.0 in WNW 13.0 mph 13.0 mph 66 % 0.0 in 0.0 W/m2 CLR
00:47 -2.2 °F -7.5 °F 1027.3 in WNW 14.8 mph 14.8 mph 67 % 0.0 in 0.0 W/m2 CLR
00:52 -2.2 °F -7.3 °F 1027.3 in WNW 13.0 mph 13.0 mph 68 % 0.0 in 0.0 W/m2 CLR
01:17 -2.2 °F -7.2 °F 1027.3 in West 11.1 mph 11.1 mph 69 % 0.0 in 0.0 W/m2 CLR
01:32 -2.8 °F -7.7 °F 1027.3 in WSW 7.4 mph 7.4 mph 69 % 0.0 in 0.0 W/m2 CLR
01:37 -2.8 °F -7.7 °F 1027.3 in Calm     69 % 0.0 in 0.0 W/m2 CLR
01:42 -2.8 °F -7.5 °F 1027.3 in Calm     70 % 0.0 in 0.0 W/m2 CLR
01:47 -2.8 °F -6.9 °F 1027.3 in Calm     73 % 0.0 in 0.0 W/m2 CLR
01:52 -2.8 °F -6.6 °F 1027.3 in Calm     75 % 0.0 in 0.0 W/m2 CLR
01:57 -2.8 °F -6.4 °F 1027.3 in West 5.6 mph 5.6 mph 76 % 0.0 in 0.0 W/m2 CLR
02:07 -2.8 °F -6.9 °F 1027.3 in Calm     73 % 0.0 in 0.0 W/m2 CLR
02:17 -3.3 °F -6.9 °F 1027.3 in Calm     76 % 0.0 in 0.0 W/m2 CLR
02:22 -3.3 °F -6.8 °F 1027.3 in West 11.3 mph 11.3 mph 77 % 0.0 in 0.0 W/m2 CLR
02:27 -3.3 °F -6.4 °F 1027.3 in West 11.1 mph 11.1 mph 79 % 0.0 in 0.0 W/m2 CLR
02:37 -3.3 °F -7.5 °F 1027.3 in West 9.3 mph 9.3 mph 73 % 0.0 in 0.0 W/m2 CLR
02:42 -3.3 °F -7.7 °F 1027.7 in West 13.0 mph 13.0 mph 72 % 0.0 in 0.0 W/m2 CLR
02:47 -3.3 °F -7.7 °F 1027.7 in WNW 11.1 mph 11.1 mph 72 % 0.0 in 0.0 W/m2 CLR
02:52 -3.3 °F -7.8 °F 1027.7 in West 12.9 mph 12.9 mph 71 % 0.0 in 0.0 W/m2 CLR
02:57 -3.3 °F -7.8 °F 1027.7 in West 7.4 mph 7.4 mph 71 % 0.0 in 0.0 W/m2 CLR
03:03 -3.3 °F -7.8 °F 1027.3 in West 3.7 mph 3.7 mph 71 % 0.0 in 0.0 W/m2 CLR
03:13 -3.3 °F -7.5 °F 1027.7 in West 5.6 mph 5.6 mph 73 % 0.0 in 0.0 W/m2 CLR
03:18 -3.3 °F -7.5 °F 1027.7 in Calm     73 % 0.0 in 0.0 W/m2 CLR
03:23 -3.3 °F -7.1 °F 1027.7 in Calm     75 % 0.0 in 0.0 W/m2 CLR
03:28 -3.3 °F -7.1 °F 1027.7 in Calm     75 % 0.0 in 0.0 W/m2 CLR
03:33 -3.3 °F -6.9 °F 1027.7 in Calm     76 % 0.0 in 0.0 W/m2 CLR
03:38 -3.3 °F -6.6 °F 1027.7 in Calm     78 % 0.0 in 0.0 W/m2 CLR
03:48 -3.3 °F -6.4 °F 1027.3 in Calm     79 % 0.0 in 0.0 W/m2 CLR
03:58 -3.3 °F -6.3 °F 1027.3 in Calm     80 % 0.0 in 0.0 W/m2 CLR
04:03 -3.3 °F -6.3 °F 1027.3 in Calm     80 % 0.0 in 0.0 W/m2 CLR
04:08 -3.3 °F -6.3 °F 1027.3 in Calm     80 % 0.0 in 0.0 W/m2 CLR
04:13 -3.3 °F -6.4 °F 1027.3 in Calm     79 % 0.0 in 0.0 W/m2 CLR
04:18 -3.3 °F -6.4 °F 1027.3 in Calm     79 % 0.0 in 0.0 W/m2 CLR
04:20 -3.3 °F -6.3 °F 1027.3 in Calm     80 % 0.0 in 0.0 W/m2 CLR
04:22 -3.3 °F -6.3 °F 1027.3 in Calm     80 % 0.0 in 0.0 W/m2 CLR
04:27 -3.3 °F -6.3 °F 1027.3 in West 5.6 mph 5.6 mph 80 % 0.0 in 0.0 W/m2 CLR
04:32 -3.3 °F -6.1 °F 1027.3 in Calm     81 % 0.0 in 0.0 W/m2 CLR
04:37 -3.3 °F -6.1 °F 1027.3 in Calm     81 % 0.0 in 0.0 W/m2 CLR
04:42 -3.3 °F -6.1 °F 1027.7 in Calm     81 % 0.0 in 0.0 W/m2 CLR
04:47 -3.3 °F -5.9 °F 1027.7 in Calm     82 % 0.0 in 0.0 W/m2 CLR
04:52 -3.3 °F -5.9 °F 1027.7 in Calm     82 % 0.0 in 0.0 W/m2 CLR
04:57 -3.3 °F -5.9 °F 1027.7 in Calm     82 % 0.0 in 0.0 W/m2 CLR
05:02 -3.3 °F -5.9 °F 1027.7 in Calm     82 % 0.0 in 0.0 W/m2 CLR
05:07 -3.3 °F -5.9 °F 1027.7 in Calm     82 % 0.0 in 0.0 W/m2 CLR
05:12 -3.9 °F -6.3 °F 1027.7 in Calm     83 % 0.0 in 0.0 W/m2 CLR
05:17 -3.3 °F -5.9 °F 1027.3 in Calm     82 % 0.0 in 0.0 W/m2 CLR
05:22 -3.3 °F -5.8 °F 1027.3 in WSW 5.6 mph 5.6 mph 83 % 0.0 in 0.0 W/m2 CLR
05:37 -3.9 °F -6.3 °F 1027.7 in Calm     83 % 0.0 in 0.0 W/m2 CLR
05:47 -3.9 °F -6.3 °F 1027.7 in WSW 1.9 mph 1.9 mph 83 % 0.0 in 0.0 W/m2 CLR
05:52 -3.9 °F -6.2 °F 1027.3 in WSW 3.7 mph   84 % 0.0 in 0.0 W/m2 CLR
05:57 -3.9 °F -6.3 °F 1027.3 in Calm     83 % 0.0 in 0.0 W/m2 CLR
06:02 -3.9 °F -6.3 °F 1027.3 in Calm     83 % 0.0 in 0.0 W/m2 CLR
06:07 -3.9 °F -6.3 °F 1027.3 in Calm     83 % 0.0 in 0.0 W/m2 CLR
06:12 -4.4 °F -6.9 °F 1027.3 in Calm     83 % 0.0 in 0.0 W/m2 CLR
06:22 -4.4 °F -6.9 °F 1027.3 in Calm     83 % 0.0 in 0.0 W/m2 CLR
06:32 -4.4 °F -6.7 °F 1027.3 in Calm     84 % 0.0 in 0.0 W/m2 CLR
06:37 -4.4 °F -6.7 °F 1027.7 in Calm     84 % 0.0 in 0.0 W/m2 CLR
06:42 -3.9 °F -6.3 °F 1027.7 in Calm     83 % 0.0 in 0.0 W/m2 CLR
06:47 -3.3 °F -5.8 °F 1027.7 in Calm     83 % 0.0 in 0.0 W/m2 CLR
06:52 -3.3 °F -5.8 °F 1028.0 in Calm     83 % 0.0 in 0.0 W/m2 CLR
06:57 -3.9 °F -6.2 °F 1028.0 in Calm     84 % 0.0 in 0.0 W/m2 CLR
07:07 -3.9 °F -6.3 °F 1028.0 in Calm     83 % 0.0 in 0.0 W/m2 CLR
07:12 -3.9 °F -6.3 °F 1028.0 in Calm     83 % 0.0 in 0.0 W/m2 CLR
07:17 -3.9 °F -6.1 °F 1028.0 in Calm     85 % 0.0 in 0.0 W/m2 CLR
07:22 -3.9 °F -6.1 °F 1028.0 in Calm     85 % 0.0 in 0.0 W/m2 CLR
07:32 -3.9 °F -6.1 °F 1028.0 in Calm     85 % 0.0 in 0.0 W/m2 CLR
07:42 -3.9 °F -6.1 °F 1028.0 in Calm     85 % 0.0 in 0.0 W/m2 CLR
07:52 -3.9 °F -5.9 °F 1028.3 in Calm     86 % 0.0 in 0.0 W/m2 CLR
07:57 -3.9 °F -6.1 °F 1028.7 in Calm     85 % 0.0 in 0.0 W/m2 CLR
08:02 -3.9 °F -5.9 °F 1028.3 in Calm     86 % 0.0 in 0.0 W/m2 CLR
08:12 -3.9 °F -5.9 °F 1028.3 in Calm     86 % 0.0 in 5.0 W/m2 OVC
08:17 -3.9 °F -5.7 °F 1028.3 in Calm     87 % 0.0 in 11.0 W/m2 BKN
08:22 -3.9 °F -5.7 °F 1028.3 in Calm     87 % 0.0 in 12.0 W/m2 BKN
08:27 -3.9 °F -5.7 °F 1028.3 in Calm     87 % 0.0 in 16.0 W/m2 BKN
08:32 -3.9 °F -5.7 °F 1028.7 in Calm     87 % 0.0 in 21.0 W/m2 BKN
08:37 -3.9 °F -5.7 °F 1028.3 in Calm     87 % 0.0 in 21.0 W/m2 BKN
08:42 -3.3 °F -5.1 °F 1028.3 in Calm     88 % 0.0 in 23.0 W/m2 BKN
08:52 -3.3 °F -5.1 °F 1028.3 in Calm     88 % 0.0 in 44.0 W/m2 BKN
09:00 -3.3 °F -4.9 °F 1028.3 in Calm     89 % 0.0 in 69.0 W/m2 FEW
09:05 -3.3 °F -5.2 °F 1028.7 in Calm     87 % 0.0 in 58.0 W/m2 SCT
09:10 -2.8 °F -4.9 °F 1028.3 in Calm     85 % 0.0 in 58.0 W/m2 SCT
09:15 -2.8 °F -5.1 °F 1028.3 in Calm     84 % 0.0 in 54.0 W/m2 SCT
09:20 -2.8 °F -5.1 °F 1028.3 in Calm     84 % 0.0 in 58.0 W/m2 SCT
09:25 -2.8 °F -5.1 °F 1028.3 in Calm     84 % 0.0 in 86.0 W/m2 SCT
09:30 -2.2 °F -4.6 °F 1028.3 in Calm     84 % 0.0 in 102.0 W/m2 FEW
09:41 -1.7 °F -3.8 °F 1028.7 in Calm     85 % 0.0 in 111.0 W/m2 CLR
09:46 -1.7 °F -3.8 °F 1028.7 in Calm     85 % 0.0 in 156.0 W/m2 CLR
09:51 -1.7 °F -3.8 °F 1028.7 in Calm     85 % 0.0 in 113.0 W/m2 CLR
09:56 -1.1 °F -3.4 °F 1029.0 in Calm     84 % 0.0 in 107.0 W/m2 CLR
10:01 -1.1 °F -3.6 °F 1029.0 in Calm     83 % 0.0 in 120.0 W/m2 CLR
10:06 -0.6 °F -3.1 °F 1029.0 in Calm     83 % 0.0 in 142.0 W/m2 CLR
10:11 -0.6 °F -3.1 °F 1029.0 in Calm     83 % 0.0 in 160.0 W/m2 CLR
10:16 0.0 °F -2.7 °F 1029.0 in Calm     82 % 0.0 in 162.0 W/m2 CLR
10:26 0.6 °F -2.3 °F 1029.0 in Calm     81 % 0.0 in 165.0 W/m2 CLR
10:31 1.1 °F -1.8 °F 1029.0 in Calm     81 % 0.0 in 192.0 W/m2 CLR
10:36 1.7 °F -1.4 °F 1029.0 in Calm     80 % 0.0 in 243.0 W/m2 CLR
10:41 1.7 °F -1.4 °F 1029.0 in Calm     80 % 0.0 in 197.0 W/m2 CLR
10:51 2.8 °F -0.8 °F 1029.0 in NW 8.0 mph 8.0 mph 77 % 0.0 in 221.0 W/m2 CLR
10:56 3.3 °F -1.8 °F 1029.0 in NW 14.8 mph 14.8 mph 69 % 0.0 in 246.0 W/m2 CLR
11:01 3.9 °F -2.1 °F 1028.7 in Calm     65 % 0.0 in 225.0 W/m2 CLR
11:06 4.4 °F -2.0 °F 1028.7 in SSW 14.8 mph 14.8 mph 63 % 0.0 in 211.0 W/m2 CLR
11:16 6.1 °F -1.1 °F 1028.7 in NW 8.0 mph 8.0 mph 60 % 0.0 in 176.0 W/m2 CLR
11:21 6.7 °F -0.8 °F 1028.3 in WNW 14.8 mph 14.8 mph 59 % 0.0 in 163.0 W/m2 CLR
11:26 7.8 °F -0.2 °F 1028.3 in WNW 14.8 mph 14.8 mph 57 % 0.0 in 167.0 W/m2 CLR
11:31 8.3 °F 0.3 °F 1028.3 in NW 14.8 mph 14.8 mph 57 % 0.0 in 185.0 W/m2 CLR
11:36 8.9 °F 0.6 °F 1028.3 in West 13.0 mph 13.0 mph 56 % 0.0 in 213.0 W/m2 CLR
11:46 9.4 °F 0.8 °F 1028.0 in NW 3.7 mph 3.7 mph 55 % 0.0 in 209.0 W/m2 CLR
11:51 9.4 °F 0.8 °F 1028.0 in West 1.9 mph 1.9 mph 55 % 0.0 in 199.0 W/m2 CLR
12:01 10.0 °F 1.1 °F 1027.7 in WNW 13.0 mph 13.0 mph 54 % 0.0 in 216.0 W/m2 CLR
12:06 10.0 °F 1.1 °F 1027.7 in West 3.7 mph   54 % 0.0 in 234.0 W/m2 CLR
12:11 10.0 °F 0.8 °F 1027.7 in WNW 3.7 mph 3.7 mph 53 % 0.0 in 209.0 W/m2 CLR
12:16 10.0 °F 0.8 °F 1027.7 in Calm     53 % 0.0 in 206.0 W/m2 CLR
12:21 10.6 °F 1.4 °F 1027.7 in Calm     53 % 0.0 in 218.0 W/m2 CLR
12:26 10.6 °F 1.4 °F 1027.7 in West 1.6 mph   53 % 0.0 in 227.0 W/m2 CLR
12:31 10.6 °F 1.1 °F 1027.3 in West 1.9 mph 1.9 mph 52 % 0.0 in 218.0 W/m2 CLR
12:36 10.6 °F 1.1 °F 1027.3 in WNW 3.7 mph 3.7 mph 52 % 0.0 in 192.0 W/m2 CLR
12:41 11.1 °F 1.6 °F 1027.3 in Calm     52 % 0.0 in 162.0 W/m2 CLR
12:46 11.1 °F 1.6 °F 1027.3 in NNW 14.5 mph 14.5 mph 52 % 0.0 in 178.0 W/m2 CLR
13:01 11.1 °F 1.6 °F 1027.7 in NE 14.8 mph 14.8 mph 52 % 0.0 in 404.0 W/m2 CLR
13:16 11.1 °F 1.9 °F 1027.7 in NE 16.7 mph 16.7 mph 53 % 0.0 in 325.0 W/m2 CLR
13:26 10.6 °F 1.6 °F 1027.3 in North 12.9 mph 12.9 mph 54 % 0.0 in 429.0 W/m2 CLR
13:31 10.6 °F 1.1 °F 1027.3 in NNW 8.0 mph 8.4 mph 52 % 0.0 in 213.0 W/m2 CLR
13:41 10.6 °F 1.4 °F 1027.0 in NNW 6.4 mph 6.4 mph 53 % 0.0 in 374.0 W/m2 CLR
13:51 11.1 °F 1.3 °F 1027.0 in Calm     51 % 0.0 in 425.0 W/m2 CLR
13:56 11.1 °F 1.3 °F 1027.0 in NW 14.8 mph 14.8 mph 51 % 0.0 in 452.0 W/m2 CLR
14:01 11.7 °F 1.6 °F 1027.0 in WNW 1.9 mph 1.9 mph 50 % 0.0 in 457.0 W/m2 CLR
14:06 11.7 °F 1.6 °F 1026.6 in Calm     50 % 0.0 in 332.0 W/m2 CLR
14:11 11.7 °F 1.8 °F 1026.6 in Calm   0.2 mph 51 % 0.0 in 415.0 W/m2 CLR
14:16 11.7 °F 1.3 °F 1026.3 in NNW 14.8 mph 14.8 mph 49 % 0.0 in 404.0 W/m2 CLR
14:21 11.7 °F 1.0 °F 1026.3 in NNW 11.3 mph 11.3 mph 48 % 0.0 in 406.0 W/m2 CLR
14:26 12.2 °F 1.2 °F 1026.3 in NW 13.0 mph 13.0 mph 47 % 0.0 in 380.0 W/m2 CLR
14:31 12.2 °F 0.9 °F 1026.3 in NW 16.7 mph 16.7 mph 46 % 0.0 in 297.0 W/m2 CLR
14:36 12.2 °F 0.9 °F 1026.0 in West 12.9 mph 12.9 mph 46 % 0.0 in 343.0 W/m2 CLR
14:41 12.2 °F 1.2 °F 1026.0 in WNW 11.1 mph 11.1 mph 47 % 0.0 in 396.0 W/m2 CLR
14:51 12.8 °F 1.7 °F 1026.0 in NW 9.7 mph 9.7 mph 47 % 0.0 in 246.0 W/m2 CLR
14:56 12.2 °F 1.2 °F 1026.0 in North 13.0 mph 13.0 mph 47 % 0.0 in 190.0 W/m2 CLR
15:01 12.2 °F 1.2 °F 1026.0 in NNW 11.1 mph   47 % 0.0 in 313.0 W/m2 CLR
15:06 12.2 °F 1.2 °F 1026.0 in NE 14.8 mph 14.8 mph 47 % 0.0 in 288.0 W/m2 CLR
15:11 11.7 °F 1.0 °F 1026.0 in NE 13.0 mph 13.0 mph 48 % 0.0 in 306.0 W/m2 CLR
15:16 11.7 °F 1.0 °F 1026.0 in ENE 14.8 mph 14.8 mph 48 % 0.0 in 281.0 W/m2 CLR
15:21 11.7 °F 1.3 °F 1026.3 in NE 16.7 mph 16.7 mph 49 % 0.0 in 279.0 W/m2 CLR
15:26 11.7 °F 1.3 °F 1026.0 in NNE 14.8 mph 14.8 mph 49 % 0.0 in 232.0 W/m2 CLR
15:31 11.7 °F 1.3 °F 1026.0 in NE 13.0 mph 13.0 mph 49 % 0.0 in 251.0 W/m2 CLR
15:36 11.7 °F 1.3 °F 1026.0 in Calm     49 % 0.0 in 232.0 W/m2 CLR
15:41 11.7 °F 1.3 °F 1025.6 in Calm     49 % 0.0 in 197.0 W/m2 CLR
15:44 11.7 °F 1.3 °F 1025.6 in Calm     49 % 0.0 in 192.0 W/m2 CLR
15:49 11.7 °F 1.0 °F 1025.6 in Calm     48 % 0.0 in 148.0 W/m2 CLR
15:54 11.7 °F 1.0 °F 1025.6 in Calm     48 % 0.0 in 176.0 W/m2 CLR
15:59 11.7 °F 1.0 °F 1026.0 in Calm     48 % 0.0 in 120.0 W/m2 CLR
16:04 11.1 °F 0.5 °F 1025.6 in Calm     48 % 0.0 in 107.0 W/m2 CLR
16:09 11.1 °F 0.5 °F 1025.6 in Calm     48 % 0.0 in 105.0 W/m2 CLR
16:14 11.1 °F 0.8 °F 1025.6 in Calm     49 % 0.0 in 95.0 W/m2 CLR
16:19 11.1 °F 1.1 °F 1025.6 in Calm     50 % 0.0 in 120.0 W/m2 CLR
16:24 10.6 °F 0.6 °F 1025.6 in Calm     50 % 0.0 in 76.0 W/m2 CLR
16:29 10.6 °F 0.6 °F 1025.6 in Calm     50 % 0.0 in 70.0 W/m2 FEW
16:39 10.0 °F 0.3 °F 1025.6 in Calm     51 % 0.0 in 60.0 W/m2 SCT
16:44 9.4 °F -0.2 °F 1025.6 in Calm     51 % 0.0 in 58.0 W/m2 SCT
16:49 8.9 °F -0.4 °F 1025.6 in Calm     52 % 0.0 in 51.0 W/m2 SCT
16:54 8.9 °F -0.4 °F 1025.6 in Calm     52 % 0.0 in 44.0 W/m2 SCT
16:59 8.9 °F -0.4 °F 1025.6 in Calm     52 % 0.0 in 42.0 W/m2 BKN
17:05 8.3 °F -0.7 °F 1025.3 in Calm     53 % 0.0 in 32.0 W/m2 BKN
17:10 8.3 °F -0.4 °F 1025.6 in Calm     54 % 0.0 in 25.0 W/m2 BKN
17:15 7.8 °F -0.9 °F 1025.6 in Calm     54 % 0.0 in 16.0 W/m2 BKN
17:20 7.8 °F -0.9 °F 1025.6 in Calm     54 % 0.0 in 11.0 W/m2 BKN
17:25 7.2 °F -1.5 °F 1025.6 in Calm     54 % 0.0 in 7.0 W/m2 BKN
17:35 6.1 °F -2.0 °F 1025.6 in Calm     56 % 0.0 in 0.0 W/m2 OVC
17:40 6.1 °F -1.8 °F 1025.6 in Calm     57 % 0.0 in 0.0 W/m2 OVC
17:45 6.7 °F -1.0 °F 1025.6 in Calm     58 % 0.0 in 0.0 W/m2 CLR
17:50 6.1 °F -1.3 °F 1025.3 in Calm     59 % 0.0 in 0.0 W/m2 CLR
17:55 6.1 °F -1.1 °F 1025.3 in Calm     60 % 0.0 in 0.0 W/m2 CLR
18:00 6.1 °F -0.8 °F 1025.6 in Calm     61 % 0.0 in 0.0 W/m2 CLR
18:05 5.6 °F -1.2 °F 1025.6 in Calm     62 % 0.0 in 0.0 W/m2 CLR
18:17 4.4 °F -2.0 °F 1025.6 in Calm     63 % 0.0 in 0.0 W/m2 CLR
18:21 4.4 °F -2.0 °F 1025.6 in Calm     63 % 0.0 in 0.0 W/m2 CLR
18:26 4.4 °F -1.8 °F 1025.6 in Calm     64 % 0.0 in 0.0 W/m2 CLR
18:36 3.9 °F -1.9 °F 1025.6 in Calm     66 % 0.0 in 0.0 W/m2 CLR
18:41 3.9 °F -1.7 °F 1025.6 in Calm     67 % 0.0 in 0.0 W/m2 CLR
18:46 3.3 °F -2.0 °F 1025.6 in Calm     68 % 0.0 in 0.0 W/m2 CLR
18:51 3.3 °F -1.8 °F 1025.6 in Calm     69 % 0.0 in 0.0 W/m2 CLR
19:01 3.3 °F -1.6 °F 1025.6 in Calm     70 % 0.0 in 0.0 W/m2 CLR
19:06 2.8 °F -1.9 °F 1025.6 in Calm     71 % 0.0 in 0.0 W/m2 CLR
19:21 3.3 °F -1.2 °F 1025.6 in Calm     72 % 0.0 in 0.0 W/m2 CLR
19:31 3.3 °F -1.2 °F 1025.6 in Calm     72 % 0.0 in 0.0 W/m2 CLR
19:36 2.8 °F -1.8 °F 1025.6 in Calm     72 % 0.0 in 0.0 W/m2 CLR
19:41 2.2 °F -2.3 °F 1025.6 in Calm     72 % 0.0 in 0.0 W/m2 CLR
19:46 2.2 °F -2.1 °F 1025.6 in Calm     73 % 0.0 in 0.0 W/m2 CLR
19:56 1.7 °F -2.7 °F 1025.6 in Calm     73 % 0.0 in 0.0 W/m2 CLR
20:01 1.7 °F -2.5 °F 1025.6 in Calm     74 % 0.0 in 0.0 W/m2 CLR
20:06 1.7 °F -2.7 °F 1025.6 in Calm     73 % 0.0 in 0.0 W/m2 CLR
20:11 1.7 °F -2.5 °F 1025.6 in Calm     74 % 0.0 in 0.0 W/m2 CLR
20:16 1.7 °F -2.5 °F 1025.6 in Calm     74 % 0.0 in 0.0 W/m2 CLR
20:21 1.1 °F -2.8 °F 1025.6 in Calm     75 % 0.0 in 0.0 W/m2 CLR
20:26 1.1 °F -2.7 °F 1025.6 in Calm     76 % 0.0 in 0.0 W/m2 CLR
20:31 1.1 °F -2.7 °F 1025.6 in Calm     76 % 0.0 in 0.0 W/m2 CLR
20:36 1.1 °F -2.7 °F 1025.6 in Calm     76 % 0.0 in 0.0 W/m2 CLR
20:41 1.1 °F -2.7 °F 1025.3 in Calm     76 % 0.0 in 0.0 W/m2 CLR
20:46 0.6 °F -3.0 °F 1025.6 in Calm     77 % 0.0 in 0.0 W/m2 CLR
20:51 0.6 °F -2.8 °F 1025.6 in Calm     78 % 0.0 in 0.0 W/m2 CLR
21:06 1.1 °F -2.3 °F 1025.3 in Calm     78 % 0.0 in 0.0 W/m2 CLR
21:26 1.1 °F -2.1 °F 1025.6 in Calm     79 % 0.0 in 0.0 W/m2 CLR
21:36 1.1 °F -2.1 °F 1025.6 in Calm     79 % 0.0 in 0.0 W/m2 CLR
21:41 1.1 °F -2.1 °F 1025.6 in Calm     79 % 0.0 in 0.0 W/m2 CLR
21:51 0.6 °F -2.7 °F 1025.6 in Calm     79 % 0.0 in 0.0 W/m2 CLR
21:56 0.6 °F -2.7 °F 1025.6 in Calm     79 % 0.0 in 0.0 W/m2 CLR
22:01 0.6 °F -2.5 °F 1025.6 in Calm     80 % 0.0 in 0.0 W/m2 CLR
22:06 0.6 °F -2.5 °F 1025.6 in West 14.8 mph 14.8 mph 80 % 0.0 in 0.0 W/m2 CLR
22:21 1.1 °F -3.4 °F 1025.3 in West 22.2 mph 22.2 mph 72 % 0.0 in 0.0 W/m2 CLR
22:42 2.2 °F -3.1 °F 1024.9 in West 14.8 mph 14.8 mph 68 % 0.0 in 0.0 W/m2 CLR
22:47 2.2 °F -3.5 °F 1025.3 in West 12.9 mph 12.9 mph 66 % 0.0 in 0.0 W/m2 CLR
22:57 2.8 °F -2.9 °F 1024.9 in West 7.4 mph   66 % 0.0 in 0.0 W/m2 CLR
23:02 3.3 °F -2.6 °F 1024.9 in Calm     65 % 0.0 in 0.0 W/m2 CLR
23:07 3.3 °F -2.6 °F 1024.9 in Calm     65 % 0.0 in 0.0 W/m2 CLR
23:12 3.3 °F -2.2 °F 1024.9 in Calm     67 % 0.0 in 0.0 W/m2 CLR
23:17 3.3 °F -1.8 °F 1024.9 in Calm     69 % 0.0 in 0.0 W/m2 CLR
23:27 3.9 °F -1.9 °F 1025.3 in Calm     66 % 0.0 in 0.0 W/m2 CLR
23:32 3.9 °F -1.1 °F 1025.3 in Calm     70 % 0.0 in 0.0 W/m2 CLR
23:37 3.9 °F -0.9 °F 1025.3 in Calm     71 % 0.0 in 0.0 W/m2 CLR
23:42 3.9 °F -0.9 °F 1025.3 in Calm     71 % 0.0 in 0.0 W/m2 CLR
23:47 3.9 °F -0.7 °F 1025.3 in Calm     72 % 0.0 in 0.0 W/m2 CLR
23:52 3.9 °F -0.7 °F 1024.9 in Calm     72 % 0.0 in 0.0 W/m2 CLR
23:57 3.9 °F -0.7 °F 1024.9 in Calm     72 % 0.0 in 0.0 W/m2 CLR
Lo Temps de Massalio
Compliments of Weather Underground - 1 mb